Hauptseite
METAR-TAF:

METAR-TAF

Flughäfen :

P11-b, Niederlande

Bohrplattform

Breite: 52-21-36N, Länge: 3-20-30E, Höhe: 24 m

Beobachtung

Neuester Wetterbericht von vor 13 Minuten, um 11:25 UTC
Wind 28 kt aus Süd, variierte zwischen Südost und West/Südwest
Temperatur 8°C
Luftfeuchtigkeit 87%
Luftdruck 1015 hPa
Sichtweite 10 km oder mehr
Leicht bewölkt in der Höhe von 1400 ft
Durchbrochene Bewölkung in der Höhe von 2500 ft
Durchbrochene Bewölkung in der Höhe von 3200 ft
Leichtregen

METAR: EHPG 231125Z AUTO 19028KT 140V250 9999 -RA FEW014 BKN025 BKN032 08/06 Q1015 W///H///

Zeit: 12:38 (11:38 UTC)


TAF: fehlend

Wetterbeobachtungen und Prognosen von mehr als 4000 Flughäfen (METAR und TAF Bericht).

Die verfügbaren Stationen werden durch gelbe und rote Markierungen auf der Karte dargestellt.

Führen Sie die Maus auf sie, um den Namen der Station zu sehen.

Darauf klicken, um die Beobachtung von Wetterbeobachtungen und Prognosen zu sehen.

Um die Karte zu ändern : klicken Sie auf den grünen Tasten mit einem schwarzen Kreuz Zum Vergrößern, auf den grünen Button mit einem Gedankenstrich zu verkleinern, oder auf die grünen Pfeile für benachbarte Karten.


METAR-TAF: